sensor_id;sensor_type;location;lat;lon;timestamp;pressure;altitude;pressure_sealevel;temperature;humidity
73455;BME280;61690;51.824;6.306;2022-09-09T00:00:26;100695.81;;;22.64;51.50
73455;BME280;61690;51.824;6.306;2022-09-09T00:03:04;100696.66;;;22.64;51.43
73455;BME280;61690;51.824;6.306;2022-09-09T00:05:45;100692.34;;;22.63;51.65
73455;BME280;61690;51.824;6.306;2022-09-09T00:08:20;100700.28;;;22.63;51.55
73455;BME280;61690;51.824;6.306;2022-09-09T00:10:54;100695.00;;;22.63;51.57
73455;BME280;61690;51.824;6.306;2022-09-09T00:13:37;100696.81;;;22.63;51.51
73455;BME280;61690;51.824;6.306;2022-09-09T00:16:24;100688.84;;;22.63;51.52
73455;BME280;61690;51.824;6.306;2022-09-09T00:19:07;100689.69;;;22.63;51.46
73455;BME280;61690;51.824;6.306;2022-09-09T00:21:43;100684.38;;;22.63;51.41
73455;BME280;61690;51.824;6.306;2022-09-09T00:27:06;100690.66;;;22.62;51.41
73455;BME280;61690;51.824;6.306;2022-09-09T00:29:41;100687.03;;;22.63;51.27
73455;BME280;61690;51.824;6.306;2022-09-09T00:32:16;100688.00;;;22.62;51.45
73455;BME280;61690;51.824;6.306;2022-09-09T00:37:14;100679.34;;;22.60;51.47
73455;BME280;61690;51.824;6.306;2022-09-09T00:39:46;100678.38;;;22.61;51.36
73455;BME280;61690;51.824;6.306;2022-09-09T00:42:18;100685.34;;;22.62;51.31
73455;BME280;61690;51.824;6.306;2022-09-09T00:47:45;100680.03;;;22.62;51.46
73455;BME280;61690;51.824;6.306;2022-09-09T00:50:21;100674.03;;;22.60;51.42
73455;BME280;61690;51.824;6.306;2022-09-09T00:56:10;100681.03;;;22.61;51.31
73455;BME280;61690;51.824;6.306;2022-09-09T00:58:36;100680.75;;;22.64;51.22
73455;BME280;61690;51.824;6.306;2022-09-09T01:01:10;100679.34;;;22.60;51.25
73455;BME280;61690;51.824;6.306;2022-09-09T01:03:38;100679.22;;;22.62;51.25
73455;BME280;61690;51.824;6.306;2022-09-09T01:20:02;100681.28;;;22.58;51.14
73455;BME280;61690;51.824;6.306;2022-09-09T01:28:11;100670.69;;;22.58;51.21
73455;BME280;61690;51.824;6.306;2022-09-09T01:30:40;100665.38;;;22.58;51.37
73455;BME280;61690;51.824;6.306;2022-09-09T01:33:11;100668.72;;;22.60;51.39
73455;BME280;61690;51.824;6.306;2022-09-09T01:36:13;100668.03;;;22.58;51.32
73455;BME280;61690;51.824;6.306;2022-09-09T01:38:41;100660.19;;;22.57;51.32
73455;BME280;61690;51.824;6.306;2022-09-09T01:41:07;100661.06;;;22.57;51.27
73455;BME280;61690;51.824;6.306;2022-09-09T01:43:32;100657.72;;;22.55;51.33
73455;BME280;61690;51.824;6.306;2022-09-09T01:46:00;100658.41;;;22.57;51.20
73455;BME280;61690;51.824;6.306;2022-09-09T01:48:26;100657.41;;;22.58;51.21
73455;BME280;61690;51.824;6.306;2022-09-09T01:50:52;100664.66;;;22.56;51.39
73455;BME280;61690;51.824;6.306;2022-09-09T01:53:19;100662.84;;;22.57;51.24
73455;BME280;61690;51.824;6.306;2022-09-09T01:59:07;100667.31;;;22.56;51.36
73455;BME280;61690;51.824;6.306;2022-09-09T02:04:45;100662.03;;;22.56;51.17
73455;BME280;61690;51.824;6.306;2022-09-09T02:09:51;100670.97;;;22.55;51.25
73455;BME280;61690;51.824;6.306;2022-09-09T02:12:21;100668.31;;;22.55;51.25
73455;BME280;61690;51.824;6.306;2022-09-09T02:14:55;100667.31;;;22.56;51.28
73455;BME280;61690;51.824;6.306;2022-09-09T02:17:31;100675.41;;;22.55;51.35
73455;BME280;61690;51.824;6.306;2022-09-09T02:20:06;100667.31;;;22.56;51.41
73455;BME280;61690;51.824;6.306;2022-09-09T02:22:33;100671.78;;;22.56;51.43
73455;BME280;61690;51.824;6.306;2022-09-09T02:25:01;100671.78;;;22.56;51.16
73455;BME280;61690;51.824;6.306;2022-09-09T02:27:29;100670.09;;;22.55;51.14
73455;BME280;61690;51.824;6.306;2022-09-09T02:29:56;100670.09;;;22.55;51.29
73455;BME280;61690;51.824;6.306;2022-09-09T02:32:25;100668.31;;;22.55;51.36
73455;BME280;61690;51.824;6.306;2022-09-09T02:34:57;100665.66;;;22.55;51.19
73455;BME280;61690;51.824;6.306;2022-09-09T02:37:27;100665.66;;;22.55;51.15
73455;BME280;61690;51.824;6.306;2022-09-09T02:39:55;100656.13;;;22.52;51.11
73455;BME280;61690;51.824;6.306;2022-09-09T02:42:21;100659.63;;;22.53;51.31
73455;BME280;61690;51.824;6.306;2022-09-09T02:44:46;100662.28;;;22.53;51.30
73455;BME280;61690;51.824;6.306;2022-09-09T02:55:09;100660.34;;;22.55;51.49
73455;BME280;61690;51.824;6.306;2022-09-09T02:57:38;100658.66;;;22.54;51.30
73455;BME280;61690;51.824;6.306;2022-09-09T03:00:04;100654.31;;;22.53;51.42
73455;BME280;61690;51.824;6.306;2022-09-09T03:02:30;100657.84;;;22.54;51.14
73455;BME280;61690;51.824;6.306;2022-09-09T03:04:56;100663.13;;;22.54;51.22
73455;BME280;61690;51.824;6.306;2022-09-09T03:07:21;100656.97;;;22.53;51.36
73455;BME280;61690;51.824;6.306;2022-09-09T03:09:47;100665.66;;;22.55;51.29
73455;BME280;61690;51.824;6.306;2022-09-09T03:12:12;100656.00;;;22.54;51.10
73455;BME280;61690;51.824;6.306;2022-09-09T03:14:38;100655.88;;;22.56;51.36
73455;BME280;61690;51.824;6.306;2022-09-09T03:17:05;100661.06;;;22.57;51.13
73455;BME280;61690;51.824;6.306;2022-09-09T03:19:30;100657.72;;;22.55;51.20
73455;BME280;61690;51.824;6.306;2022-09-09T03:21:57;100670.97;;;22.55;51.24
73455;BME280;61690;51.824;6.306;2022-09-09T03:24:22;100663.97;;;22.54;51.33
73455;BME280;61690;51.824;6.306;2022-09-09T03:26:48;100657.84;;;22.54;51.26
73455;BME280;61690;51.824;6.306;2022-09-09T03:29:13;100655.88;;;22.56;51.23
73455;BME280;61690;51.824;6.306;2022-09-09T03:31:40;100669.16;;;22.56;51.25
73455;BME280;61690;51.824;6.306;2022-09-09T03:34:05;100663.00;;;22.55;51.31
73455;BME280;61690;51.824;6.306;2022-09-09T03:36:31;100664.78;;;22.55;51.20
73455;BME280;61690;51.824;6.306;2022-09-09T03:38:57;100672.63;;;22.56;51.17
73455;BME280;61690;51.824;6.306;2022-09-09T03:41:23;100669.97;;;22.56;51.12
73455;BME280;61690;51.824;6.306;2022-09-09T03:43:50;100660.34;;;22.55;51.22
73455;BME280;61690;51.824;6.306;2022-09-09T03:46:17;100661.31;;;22.54;51.06
73455;BME280;61690;51.824;6.306;2022-09-09T03:48:42;100663.13;;;22.54;51.16
73455;BME280;61690;51.824;6.306;2022-09-09T03:51:07;100663.13;;;22.54;51.11
73455;BME280;61690;51.824;6.306;2022-09-09T03:53:32;100661.31;;;22.54;50.99
73455;BME280;61690;51.824;6.306;2022-09-09T03:55:58;100661.31;;;22.54;51.03
73455;BME280;61690;51.824;6.306;2022-09-09T03:58:25;100663.97;;;22.54;51.03
73455;BME280;61690;51.824;6.306;2022-09-09T04:01:09;100662.28;;;22.53;51.21
73455;BME280;61690;51.824;6.306;2022-09-09T04:03:34;100665.91;;;22.52;51.08
73455;BME280;61690;51.824;6.306;2022-09-09T04:06:01;100652.53;;;22.54;51.29
73455;BME280;61690;51.824;6.306;2022-09-09T04:08:27;100662.28;;;22.53;51.12
73455;BME280;61690;51.824;6.306;2022-09-09T04:10:53;100660.34;;;22.55;50.96
73455;BME280;61690;51.824;6.306;2022-09-09T04:13:22;100660.34;;;22.55;51.11
73455;BME280;61690;51.824;6.306;2022-09-09T04:15:55;100655.06;;;22.55;50.97
73455;BME280;61690;51.824;6.306;2022-09-09T04:18:21;100655.06;;;22.55;51.05
73455;BME280;61690;51.824;6.306;2022-09-09T04:20:51;100647.34;;;22.52;51.08
73455;BME280;61690;51.824;6.306;2022-09-09T04:23:17;100650.00;;;22.52;51.14
73455;BME280;61690;51.824;6.306;2022-09-09T04:25:52;100650.72;;;22.54;51.10
73455;BME280;61690;51.824;6.306;2022-09-09T04:28:19;100655.88;;;22.56;51.72
73455;BME280;61690;51.824;6.306;2022-09-09T04:30:45;100646.94;;;22.57;51.97
73455;BME280;61690;51.824;6.306;2022-09-09T04:33:11;100646.25;;;22.55;52.20
73455;BME280;61690;51.824;6.306;2022-09-09T04:35:37;100644.44;;;22.55;52.22
73455;BME280;61690;51.824;6.306;2022-09-09T04:38:04;100645.41;;;22.54;52.41
73455;BME280;61690;51.824;6.306;2022-09-09T04:40:31;100651.16;;;22.59;52.54
73455;BME280;61690;51.824;6.306;2022-09-09T04:43:01;100644.88;;;22.60;52.59
73455;BME280;61690;51.824;6.306;2022-09-09T04:45:26;100640.28;;;22.62;52.77
73455;BME280;61690;51.824;6.306;2022-09-09T04:47:53;100637.63;;;22.62;52.68
73455;BME280;61690;51.824;6.306;2022-09-09T04:50:19;100636.13;;;22.69;52.67
73455;BME280;61690;51.824;6.306;2022-09-09T04:52:45;100636.41;;;22.76;52.71
73455;BME280;61690;51.824;6.306;2022-09-09T04:55:10;100640.19;;;22.74;52.89
73455;BME280;61690;51.824;6.306;2022-09-09T04:57:38;100637.53;;;22.74;52.80
73455;BME280;61690;51.824;6.306;2022-09-09T05:00:04;100638.66;;;22.71;52.92
73455;BME280;61690;51.824;6.306;2022-09-09T05:02:29;100638.66;;;22.71;53.03
73455;BME280;61690;51.824;6.306;2022-09-09T05:07:21;100637.53;;;22.74;53.07
73455;BME280;61690;51.824;6.306;2022-09-09T05:09:46;100635.59;;;22.76;52.98
73455;BME280;61690;51.824;6.306;2022-09-09T05:12:13;100634.19;;;22.71;52.91
73455;BME280;61690;51.824;6.306;2022-09-09T05:14:38;100636.97;;;22.70;52.98
73455;BME280;61690;51.824;6.306;2022-09-09T05:17:03;100636.25;;;22.16;52.82
73455;BME280;61690;51.824;6.306;2022-09-09T05:19:29;100634.84;;;21.59;53.94
73455;BME280;61690;51.824;6.306;2022-09-09T05:21:55;100629.34;;;21.50;54.17
73455;BME280;61690;51.824;6.306;2022-09-09T05:24:20;100626.84;;;21.38;53.94
73455;BME280;61690;51.824;6.306;2022-09-09T05:26:48;100624.56;;;21.33;54.22
73455;BME280;61690;51.824;6.306;2022-09-09T05:29:13;100621.28;;;21.08;54.63
73455;BME280;61690;51.824;6.306;2022-09-09T05:31:39;100621.50;;;21.60;53.60
73455;BME280;61690;51.824;6.306;2022-09-09T05:34:04;100625.78;;;22.15;52.24
73455;BME280;61690;51.824;6.306;2022-09-09T05:36:29;100621.72;;;22.31;51.90
73455;BME280;61690;51.824;6.306;2022-09-09T05:38:55;100626.22;;;22.41;51.79
73455;BME280;61690;51.824;6.306;2022-09-09T05:41:20;100625.16;;;22.53;51.51
73455;BME280;61690;51.824;6.306;2022-09-09T05:43:46;100621.56;;;22.54;51.91
73455;BME280;61690;51.824;6.306;2022-09-09T05:46:17;100627.44;;;22.58;51.78
73455;BME280;61690;51.824;6.306;2022-09-09T05:48:44;100624.66;;;22.59;51.94
73455;BME280;61690;51.824;6.306;2022-09-09T05:51:15;100624.81;;;22.67;51.95
73455;BME280;61690;51.824;6.306;2022-09-09T05:53:41;100638.25;;;22.45;51.86
73455;BME280;61690;51.824;6.306;2022-09-09T05:56:09;100633.31;;;22.61;51.98
73455;BME280;61690;51.824;6.306;2022-09-09T05:58:39;100630.03;;;22.79;51.81
73455;BME280;61690;51.824;6.306;2022-09-09T06:01:07;100634.25;;;22.91;51.72
73455;BME280;61690;51.824;6.306;2022-09-09T06:03:38;100630.38;;;23.05;51.63
73455;BME280;61690;51.824;6.306;2022-09-09T06:06:09;100638.22;;;23.06;51.64
73455;BME280;61690;51.824;6.306;2022-09-09T06:08:36;100636.50;;;22.96;52.08
73455;BME280;61690;51.824;6.306;2022-09-09T06:11:05;100638.13;;;22.87;52.18
73455;BME280;61690;51.824;6.306;2022-09-09T06:13:31;100643.22;;;23.00;52.31
73455;BME280;61690;51.824;6.306;2022-09-09T06:15:56;100636.56;;;23.05;52.27
73455;BME280;61690;51.824;6.306;2022-09-09T06:18:23;100639.50;;;22.41;52.08
73455;BME280;61690;51.824;6.306;2022-09-09T06:20:59;100637.72;;;21.88;53.58
73455;BME280;61690;51.824;6.306;2022-09-09T06:23:32;100642.59;;;22.04;53.16
73455;BME280;61690;51.824;6.306;2022-09-09T06:28:27;100649.41;;;21.85;53.76
73455;BME280;61690;51.824;6.306;2022-09-09T06:31:03;100647.47;;;21.87;53.85
73455;BME280;61690;51.824;6.306;2022-09-09T06:33:41;100649.22;;;21.77;53.98
73455;BME280;61690;51.824;6.306;2022-09-09T06:36:12;100646.94;;;21.72;53.71
73455;BME280;61690;51.824;6.306;2022-09-09T06:38:38;100641.56;;;21.63;54.56
73455;BME280;61690;51.824;6.306;2022-09-09T06:41:04;100647.72;;;21.63;54.50
73455;BME280;61690;51.824;6.306;2022-09-09T06:43:31;100646.03;;;21.62;54.81
73455;BME280;61690;51.824;6.306;2022-09-09T06:46:01;100651.31;;;21.62;54.78
73455;BME280;61690;51.824;6.306;2022-09-09T06:48:28;100656.75;;;21.61;54.77
73455;BME280;61690;51.824;6.306;2022-09-09T06:51:07;100652.88;;;21.65;54.74
73455;BME280;61690;51.824;6.306;2022-09-09T06:53:34;100644.09;;;21.64;54.76
73455;BME280;61690;51.824;6.306;2022-09-09T06:58:41;100644.94;;;21.65;54.73
73455;BME280;61690;51.824;6.306;2022-09-09T07:01:14;100648.44;;;21.65;54.79
73455;BME280;61690;51.824;6.306;2022-09-09T07:03:41;100647.72;;;21.63;54.84
73455;BME280;61690;51.824;6.306;2022-09-09T07:06:09;100637.97;;;21.64;54.96
73455;BME280;61690;51.824;6.306;2022-09-09T07:08:40;100641.09;;;21.69;54.78
73455;BME280;61690;51.824;6.306;2022-09-09T07:11:07;100638.69;;;21.66;54.98
73455;BME280;61690;51.824;6.306;2022-09-09T07:13:33;100640.50;;;21.65;55.04
73455;BME280;61690;51.824;6.306;2022-09-09T07:16:05;100651.91;;;21.66;54.88
73455;BME280;61690;51.824;6.306;2022-09-09T07:18:31;100647.88;;;22.04;53.87
73455;BME280;61690;51.824;6.306;2022-09-09T07:20:56;100648.75;;;22.25;53.38
73455;BME280;61690;51.824;6.306;2022-09-09T07:23:23;100648.00;;;22.44;52.83
73455;BME280;61690;51.824;6.306;2022-09-09T07:25:49;100654.19;;;22.55;52.72
73455;BME280;61690;51.824;6.306;2022-09-09T07:28:15;100648.63;;;22.58;52.44
73455;BME280;61690;51.824;6.306;2022-09-09T07:30:40;100658.00;;;22.62;52.53
73455;BME280;61690;51.824;6.306;2022-09-09T07:33:06;100647.97;;;22.65;52.92
73455;BME280;61690;51.824;6.306;2022-09-09T07:35:32;100648.81;;;22.66;52.78
73455;BME280;61690;51.824;6.306;2022-09-09T07:37:57;100652.88;;;22.70;52.56
73455;BME280;61690;51.824;6.306;2022-09-09T07:40:23;100653.44;;;22.74;52.68
73455;BME280;61690;51.824;6.306;2022-09-09T07:42:49;100655.13;;;22.75;52.64
73455;BME280;61690;51.824;6.306;2022-09-09T07:47:40;100652.91;;;22.80;52.82
73455;BME280;61690;51.824;6.306;2022-09-09T07:50:08;100654.03;;;22.77;52.93
73455;BME280;61690;51.824;6.306;2022-09-09T07:52:34;100659.06;;;22.80;52.71
73455;BME280;61690;51.824;6.306;2022-09-09T07:54:59;100658.22;;;22.80;52.85
73455;BME280;61690;51.824;6.306;2022-09-09T07:57:27;100657.25;;;22.81;52.87
73455;BME280;61690;51.824;6.306;2022-09-09T07:59:52;100669.97;;;22.87;53.13
73455;BME280;61690;51.824;6.306;2022-09-09T08:02:18;100662.59;;;22.90;52.84
73455;BME280;61690;51.824;6.306;2022-09-09T08:04:43;100663.72;;;22.98;52.85
73455;BME280;61690;51.824;6.306;2022-09-09T08:07:08;100665.59;;;23.07;52.47
73455;BME280;61690;51.824;6.306;2022-09-09T08:09:34;100651.69;;;23.24;52.37
73455;BME280;61690;51.824;6.306;2022-09-09T08:12:00;100665.09;;;23.33;52.08
73455;BME280;61690;51.824;6.306;2022-09-09T08:14:26;100667.44;;;23.26;52.69
73455;BME280;61690;51.824;6.306;2022-09-09T08:16:51;100661.63;;;23.32;52.28
73455;BME280;61690;51.824;6.306;2022-09-09T08:19:18;100666.03;;;23.22;52.80
73455;BME280;61690;51.824;6.306;2022-09-09T08:21:44;100676.34;;;21.69;53.74
73455;BME280;61690;51.824;6.306;2022-09-09T08:24:11;100676.31;;;21.03;54.58
73455;BME280;61690;51.824;6.306;2022-09-09T08:26:45;100675.97;;;21.63;53.57
73455;BME280;61690;51.824;6.306;2022-09-09T08:29:12;100670.97;;;22.13;52.46
73455;BME280;61690;51.824;6.306;2022-09-09T08:31:44;100669.88;;;22.37;51.64
73455;BME280;61690;51.824;6.306;2022-09-09T08:34:10;100700.00;;;22.66;51.26
73455;BME280;61690;51.824;6.306;2022-09-09T08:36:41;100679.47;;;22.59;51.65
73455;BME280;61690;51.824;6.306;2022-09-09T08:39:08;100684.47;;;22.52;51.75
73455;BME280;61690;51.824;6.306;2022-09-09T08:55:47;100676.97;;;22.88;51.34
73455;BME280;61690;51.824;6.306;2022-09-09T08:58:16;100677.91;;;22.87;51.64
73455;BME280;61690;51.824;6.306;2022-09-09T09:08:43;100692.22;;;22.96;51.70
73455;BME280;61690;51.824;6.306;2022-09-09T09:11:09;100688.84;;;22.94;51.67
73455;BME280;61690;51.824;6.306;2022-09-09T09:13:47;100687.72;;;22.96;51.86
73455;BME280;61690;51.824;6.306;2022-09-09T09:16:39;100689.63;;;23.05;51.51
73455;BME280;61690;51.824;6.306;2022-09-09T09:19:13;100687.09;;;23.04;51.60
73455;BME280;61690;51.824;6.306;2022-09-09T09:21:42;100689.91;;;23.12;51.44
73455;BME280;61690;51.824;6.306;2022-09-09T09:24:23;100695.06;;;23.04;51.67
73455;BME280;61690;51.824;6.306;2022-09-09T09:26:51;100695.34;;;23.10;51.66
73455;BME280;61690;51.824;6.306;2022-09-09T09:29:19;100698.00;;;23.20;51.45
73455;BME280;61690;51.824;6.306;2022-09-09T09:31:53;100699.72;;;23.31;51.00
73455;BME280;61690;51.824;6.306;2022-09-09T09:34:22;100693.31;;;23.34;51.20
73455;BME280;61690;51.824;6.306;2022-09-09T09:36:56;100679.34;;;23.41;50.76
73455;BME280;61690;51.824;6.306;2022-09-09T09:39:30;100692.91;;;23.48;50.77
73455;BME280;61690;51.824;6.306;2022-09-09T09:41:56;100692.47;;;23.33;51.10
73455;BME280;61690;51.824;6.306;2022-09-09T09:44:29;100690.69;;;23.43;51.44
73455;BME280;61690;51.824;6.306;2022-09-09T09:47:11;100690.69;;;23.43;51.19
73455;BME280;61690;51.824;6.306;2022-09-09T09:49:37;100695.28;;;23.41;51.08
73455;BME280;61690;51.824;6.306;2022-09-09T09:52:04;100676.56;;;23.43;51.38
73455;BME280;61690;51.824;6.306;2022-09-09T09:54:32;100688.06;;;23.53;51.21
73455;BME280;61690;51.824;6.306;2022-09-09T09:57:13;100683.22;;;23.18;50.94
73455;BME280;61690;51.824;6.306;2022-09-09T09:59:40;100687.81;;;22.85;51.10
73455;BME280;61690;51.824;6.306;2022-09-09T10:02:26;100690.47;;;22.54;51.56
73455;BME280;61690;51.824;6.306;2022-09-09T10:05:05;100689.66;;;22.33;50.46
73455;BME280;61690;51.824;6.306;2022-09-09T10:07:31;100691.59;;;22.30;50.66
73455;BME280;61690;51.824;6.306;2022-09-09T10:09:57;100690.47;;;22.12;50.76
73455;BME280;61690;51.824;6.306;2022-09-09T10:15:44;100684.91;;;22.15;50.23
73455;BME280;61690;51.824;6.306;2022-09-09T10:18:36;100677.34;;;22.10;50.66
73455;BME280;61690;51.824;6.306;2022-09-09T10:26:50;100679.66;;;21.83;50.15
73455;BME280;61690;51.824;6.306;2022-09-09T10:38:20;100684.41;;;21.68;50.81
73455;BME280;61690;51.824;6.306;2022-09-09T10:46:08;100686.94;;;21.58;52.00
73455;BME280;61690;51.824;6.306;2022-09-09T10:55:10;100688.91;;;21.33;52.47
73455;BME280;61690;51.824;6.306;2022-09-09T10:57:58;100684.44;;;21.34;52.67
73455;BME280;61690;51.824;6.306;2022-09-09T11:00:46;100694.78;;;21.37;52.62
73455;BME280;61690;51.824;6.306;2022-09-09T11:03:21;100701.41;;;21.31;52.44
73455;BME280;61690;51.824;6.306;2022-09-09T11:05:53;100684.34;;;21.47;51.57
73455;BME280;61690;51.824;6.306;2022-09-09T11:08:26;100686.22;;;21.67;51.70
73455;BME280;61690;51.824;6.306;2022-09-09T11:16:40;100679.03;;;21.47;51.63
73455;BME280;61690;51.824;6.306;2022-09-09T11:21:46;100685.41;;;21.56;51.90
73455;BME280;61690;51.824;6.306;2022-09-09T11:26:58;100674.56;;;21.91;51.28
73455;BME280;61690;51.824;6.306;2022-09-09T11:35:38;100681.72;;;22.33;50.75
73455;BME280;61690;51.824;6.306;2022-09-09T11:38:46;100681.09;;;22.50;50.94
73455;BME280;61690;51.824;6.306;2022-09-09T11:41:14;100675.56;;;22.32;50.90
73455;BME280;61690;51.824;6.306;2022-09-09T11:43:42;100681.47;;;22.24;51.32
73455;BME280;61690;51.824;6.306;2022-09-09T11:46:09;100683.19;;;22.46;51.14
73455;BME280;61690;51.824;6.306;2022-09-09T11:48:40;100677.28;;;22.43;50.90
73455;BME280;61690;51.824;6.306;2022-09-09T11:56:31;100687.50;;;22.47;51.55
73455;BME280;61690;51.824;6.306;2022-09-09T11:59:03;100706.00;;;22.38;51.55
73455;BME280;61690;51.824;6.306;2022-09-09T12:06:52;100688.28;;;22.59;51.15
73455;BME280;61690;51.824;6.306;2022-09-09T12:10:05;100695.38;;;22.59;51.31
73455;BME280;61690;51.824;6.306;2022-09-09T12:14:53;100691.34;;;22.64;51.58
73455;BME280;61690;51.824;6.306;2022-09-09T12:17:22;100690.41;;;22.65;51.48
73455;BME280;61690;51.824;6.306;2022-09-09T12:19:48;100699.19;;;22.66;51.54
73455;BME280;61690;51.824;6.306;2022-09-09T12:28:10;100701.66;;;22.88;51.64
73455;BME280;61690;51.824;6.306;2022-09-09T12:33:18;100695.00;;;22.94;51.78
73455;BME280;61690;51.824;6.306;2022-09-09T12:35:47;100695.56;;;22.98;52.27
73455;BME280;61690;51.824;6.306;2022-09-09T12:38:23;100693.63;;;23.00;51.96
73455;BME280;61690;51.824;6.306;2022-09-09T12:40:56;100692.78;;;22.99;51.81
73455;BME280;61690;51.824;6.306;2022-09-09T12:43:24;100687.16;;;22.93;52.18
73455;BME280;61690;51.824;6.306;2022-09-09T12:45:51;100683.97;;;22.99;52.53
73455;BME280;61690;51.824;6.306;2022-09-09T12:48:27;100688.19;;;23.01;52.59
73455;BME280;61690;51.824;6.306;2022-09-09T12:50:55;100683.97;;;22.99;52.12
73455;BME280;61690;51.824;6.306;2022-09-09T12:53:37;100671.56;;;22.99;52.08
73455;BME280;61690;51.824;6.306;2022-09-09T12:56:07;100680.09;;;23.03;52.32
73455;BME280;61690;51.824;6.306;2022-09-09T12:58:33;100676.22;;;23.07;52.46
73455;BME280;61690;51.824;6.306;2022-09-09T13:01:00;100684.03;;;23.08;52.74
73455;BME280;61690;51.824;6.306;2022-09-09T13:03:27;100682.06;;;23.10;52.56
73455;BME280;61690;51.824;6.306;2022-09-09T13:05:53;100675.94;;;23.10;52.71
73455;BME280;61690;51.824;6.306;2022-09-09T13:08:19;100668.69;;;23.12;52.40
73455;BME280;61690;51.824;6.306;2022-09-09T13:10:55;100676.25;;;23.17;52.55
73455;BME280;61690;51.824;6.306;2022-09-09T13:13:26;100676.78;;;23.20;52.53
73455;BME280;61690;51.824;6.306;2022-09-09T13:15:57;100651.50;;;22.76;53.38
73455;BME280;61690;51.824;6.306;2022-09-09T13:18:27;100655.47;;;22.91;53.25
73455;BME280;61690;51.824;6.306;2022-09-09T13:20:53;100660.78;;;23.01;52.89
73455;BME280;61690;51.824;6.306;2022-09-09T13:23:20;100660.72;;;23.22;52.95
73455;BME280;61690;51.824;6.306;2022-09-09T13:25:58;100661.44;;;23.24;52.90
73455;BME280;61690;51.824;6.306;2022-09-09T13:28:26;100657.50;;;23.18;52.74
73455;BME280;61690;51.824;6.306;2022-09-09T13:30:56;100659.09;;;23.31;52.70
73455;BME280;61690;51.824;6.306;2022-09-09T13:33:29;100648.72;;;23.27;52.89
73455;BME280;61690;51.824;6.306;2022-09-09T13:36:04;100652.25;;;23.38;52.64
73455;BME280;61690;51.824;6.306;2022-09-09T13:38:33;100648.47;;;23.40;52.50
73455;BME280;61690;51.824;6.306;2022-09-09T13:41:05;100642.59;;;23.37;52.97
73455;BME280;61690;51.824;6.306;2022-09-09T13:43:37;100643.88;;;23.42;52.80
73455;BME280;61690;51.824;6.306;2022-09-09T13:48:57;100636.03;;;23.31;52.74
73455;BME280;61690;51.824;6.306;2022-09-09T13:51:33;100635.38;;;22.98;53.14
73455;BME280;61690;51.824;6.306;2022-09-09T13:53:59;100636.75;;;22.93;53.08
73455;BME280;61690;51.824;6.306;2022-09-09T13:56:25;100633.66;;;22.87;53.58
73455;BME280;61690;51.824;6.306;2022-09-09T13:58:51;100639.84;;;22.88;53.55
73455;BME280;61690;51.824;6.306;2022-09-09T14:01:16;100636.31;;;22.87;53.60
73455;BME280;61690;51.824;6.306;2022-09-09T14:03:41;100638.13;;;22.87;53.29
73455;BME280;61690;51.824;6.306;2022-09-09T14:06:07;100651.53;;;22.85;53.35
73455;BME280;61690;51.824;6.306;2022-09-09T14:08:32;100647.47;;;22.81;53.50
73455;BME280;61690;51.824;6.306;2022-09-09T14:11:03;100632.38;;;22.82;53.62
73455;BME280;61690;51.824;6.306;2022-09-09T14:13:29;100633.56;;;22.99;53.54
73455;BME280;61690;51.824;6.306;2022-09-09T14:15:54;100641.91;;;23.25;52.60
73455;BME280;61690;51.824;6.306;2022-09-09T14:18:19;100644.44;;;23.36;52.16
73455;BME280;61690;51.824;6.306;2022-09-09T14:20:47;100638.56;;;23.33;52.09
73455;BME280;61690;51.824;6.306;2022-09-09T14:23:13;100640.78;;;23.37;52.29
73455;BME280;61690;51.824;6.306;2022-09-09T14:25:44;100637.03;;;23.49;52.01
73455;BME280;61690;51.824;6.306;2022-09-09T14:28:11;100639.81;;;23.48;52.50
73455;BME280;61690;51.824;6.306;2022-09-09T14:30:39;100635.09;;;23.52;52.51
73455;BME280;61690;51.824;6.306;2022-09-09T14:33:05;100633.81;;;23.56;52.20
73455;BME280;61690;51.824;6.306;2022-09-09T14:35:30;100630.72;;;23.60;51.88
73455;BME280;61690;51.824;6.306;2022-09-09T14:37:58;100637.47;;;23.64;52.20
73455;BME280;61690;51.824;6.306;2022-09-09T14:40:24;100633.00;;;23.65;52.17
73455;BME280;61690;51.824;6.306;2022-09-09T14:42:49;100623.47;;;23.62;52.65
73455;BME280;61690;51.824;6.306;2022-09-09T14:45:14;100626.84;;;23.64;52.79
73455;BME280;61690;51.824;6.306;2022-09-09T14:47:40;100630.59;;;23.62;52.62
73455;BME280;61690;51.824;6.306;2022-09-09T14:50:05;100632.28;;;23.63;52.56
73455;BME280;61690;51.824;6.306;2022-09-09T14:52:31;100620.13;;;23.60;52.53
73455;BME280;61690;51.824;6.306;2022-09-09T14:54:56;100624.59;;;23.60;52.96
73455;BME280;61690;51.824;6.306;2022-09-09T14:57:22;100622.75;;;23.70;53.15
73455;BME280;61690;51.824;6.306;2022-09-09T14:59:47;100620.13;;;23.41;52.11
73455;BME280;61690;51.824;6.306;2022-09-09T15:02:15;100615.63;;;23.12;52.68
73455;BME280;61690;51.824;6.306;2022-09-09T15:04:41;100617.84;;;23.07;52.59
73455;BME280;61690;51.824;6.306;2022-09-09T15:07:06;100611.13;;;23.03;53.00
73455;BME280;61690;51.824;6.306;2022-09-09T15:09:31;100610.53;;;22.99;53.21
73455;BME280;61690;51.824;6.306;2022-09-09T15:11:57;100614.22;;;23.08;52.85
73455;BME280;61690;51.824;6.306;2022-09-09T15:14:22;100619.25;;;23.11;52.54
73455;BME280;61690;51.824;6.306;2022-09-09T15:16:47;100617.66;;;22.99;52.92
73455;BME280;61690;51.824;6.306;2022-09-09T15:19:13;100610.38;;;22.91;52.83
73455;BME280;61690;51.824;6.306;2022-09-09T15:21:38;100617.59;;;22.79;53.05
73455;BME280;61690;51.824;6.306;2022-09-09T15:24:05;100613.41;;;22.77;53.03
73455;BME280;61690;51.824;6.306;2022-09-09T15:26:32;100615.63;;;22.71;53.21
73455;BME280;61690;51.824;6.306;2022-09-09T15:28:58;100605.13;;;23.10;52.55
73455;BME280;61690;51.824;6.306;2022-09-09T15:31:27;100607.00;;;23.59;50.81